Time;durP1;ratioP1;P1;durP2;ratioP2;P2;SDS_P1;SDS_P2;PMS_P1;PMS_P2;Temp;Humidity;BMP_temperature;BMP_pressure;BME280_temperature;BME280_humidity;BME280_pressure;Samples;Min_cycle;Max_cycle;Signal;HPM_P1;HPM_P2
2021/05/14 00:01:51;;;;;;;0.65;0.40;;;10.70;99.90;;;;;;1908790;75;21415;-74
2021/05/14 00:04:19;;;;;;;1.65;0.30;;;10.70;99.90;;;;;;1908749;75;21512;-75
2021/05/14 00:06:45;;;;;;;0.40;0.40;;;10.80;99.90;;;;;;1908621;75;21120;-75
2021/05/14 00:09:11;;;;;;;1.25;0.70;;;10.80;99.90;;;;;;1908778;75;21047;-75
2021/05/14 00:11:37;;;;;;;0.55;0.55;;;10.80;99.90;;;;;;1908855;75;21164;-75
2021/05/14 00:14:04;;;;;;;0.95;0.53;;;10.80;99.90;;;;;;1908701;75;21047;-75
2021/05/14 00:16:30;;;;;;;1.77;0.45;;;10.80;99.90;;;;;;1908661;75;21450;-75
2021/05/14 00:18:56;;;;;;;0.50;0.50;;;10.80;99.90;;;;;;1908793;75;21555;-75
2021/05/14 00:21:22;;;;;;;3.80;0.40;;;10.80;99.90;;;;;;1908772;75;21422;-75
2021/05/14 00:23:48;;;;;;;0.93;0.50;;;10.80;99.90;;;;;;1908673;75;21466;-75
2021/05/14 00:26:14;;;;;;;1.02;0.60;;;10.70;99.90;;;;;;1908947;75;21458;-75
2021/05/14 00:28:40;;;;;;;1.00;0.50;;;10.70;99.90;;;;;;1908671;75;21042;-75
2021/05/14 00:31:06;;;;;;;7.85;0.70;;;10.70;99.90;;;;;;1913307;75;21023;-75
2021/05/14 00:33:33;;;;;;;2.90;0.30;;;10.80;99.90;;;;;;1908733;75;21080;-75
2021/05/14 00:35:59;;;;;;;0.62;0.35;;;10.70;99.90;;;;;;1908723;75;21040;-75
2021/05/14 00:38:25;;;;;;;2.17;0.57;;;10.80;99.90;;;;;;1908893;75;21047;-75
2021/05/14 00:40:51;;;;;;;2.05;0.70;;;10.70;99.90;;;;;;1908728;75;21007;-75
2021/05/14 00:43:17;;;;;;;0.40;0.40;;;10.70;99.90;;;;;;1908738;75;21078;-75
2021/05/14 00:45:43;;;;;;;1.57;0.60;;;10.60;99.90;;;;;;1908803;75;21116;-75
2021/05/14 00:48:09;;;;;;;0.50;0.50;;;10.60;99.90;;;;;;1908638;75;21039;-75
2021/05/14 00:50:35;;;;;;;0.42;0.42;;;10.60;99.90;;;;;;1908715;75;21012;-75
2021/05/14 00:53:01;;;;;;;1.80;0.50;;;10.70;99.90;;;;;;1908730;75;21042;-75
2021/05/14 00:55:28;;;;;;;1.77;0.57;;;10.50;99.90;;;;;;1908738;75;21082;-75
2021/05/14 00:57:54;;;;;;;0.60;0.60;;;10.50;99.90;;;;;;1908806;75;21019;-74
2021/05/14 01:00:20;;;;;;;0.62;0.50;;;10.50;99.90;;;;;;1908708;75;21120;-74
2021/05/14 01:02:50;;;;;;;0.80;0.53;;;10.40;99.90;;;;;;1908708;75;21034;-75
2021/05/14 01:05:14;;;;;;;0.53;0.53;;;10.30;99.90;;;;;;1908145;74;21050;-74
2021/05/14 01:07:40;;;;;;;0.47;0.47;;;10.30;99.90;;;;;;1908793;75;21046;-74
2021/05/14 01:10:06;;;;;;;0.53;0.50;;;10.20;99.90;;;;;;1908883;75;21036;-75
2021/05/14 01:12:32;;;;;;;1.05;0.50;;;10.00;99.90;;;;;;1908897;75;21051;-75
2021/05/14 01:14:58;;;;;;;0.70;0.60;;;10.10;99.90;;;;;;1908797;75;21104;-75
2021/05/14 01:17:25;;;;;;;1.95;0.60;;;10.10;99.90;;;;;;1908891;75;21090;-77
2021/05/14 01:19:51;;;;;;;0.90;0.50;;;10.10;99.90;;;;;;1908851;75;21427;-75
2021/05/14 01:22:18;;;;;;;2.35;0.70;;;10.10;99.90;;;;;;1908762;75;21486;-75
2021/05/14 01:24:45;;;;;;;0.90;0.80;;;10.10;99.90;;;;;;1908743;75;21062;-75
2021/05/14 01:27:11;;;;;;;0.45;0.45;;;10.10;99.90;;;;;;1908713;75;21054;-75
2021/05/14 01:29:37;;;;;;;0.88;0.42;;;10.10;99.90;;;;;;1908734;75;21078;-75
2021/05/14 01:32:03;;;;;;;1.70;0.88;;;10.10;99.90;;;;;;1908717;75;21038;-75
2021/05/14 01:34:29;;;;;;;1.40;0.78;;;10.10;99.90;;;;;;1908764;75;21050;-75
2021/05/14 01:36:55;;;;;;;1.20;0.60;;;10.10;99.90;;;;;;1908731;75;21582;-76
2021/05/14 01:39:25;;;;;;;1.75;0.70;;;10.00;99.90;;;;;;1908832;75;21395;-75
2021/05/14 01:41:52;;;;;;;0.60;0.60;;;9.90;99.90;;;;;;1908936;75;21062;-75
2021/05/14 01:44:18;;;;;;;6.22;0.50;;;9.90;99.90;;;;;;1908637;75;21100;-75
2021/05/14 01:46:44;;;;;;;1.42;0.60;;;9.80;99.90;;;;;;1908689;75;21519;-75
2021/05/14 01:49:10;;;;;;;0.72;0.57;;;9.80;99.90;;;;;;1908750;75;21543;-76
2021/05/14 01:51:36;;;;;;;0.42;0.35;;;9.70;99.90;;;;;;1908759;75;21445;-75
2021/05/14 01:54:02;;;;;;;0.78;0.50;;;9.70;99.90;;;;;;1908775;75;21564;-75
2021/05/14 01:56:28;;;;;;;1.02;0.50;;;9.70;99.90;;;;;;1908697;75;21016;-75
2021/05/14 01:58:54;;;;;;;0.93;0.70;;;9.70;99.90;;;;;;1908791;75;21035;-76
2021/05/14 02:01:21;;;;;;;1.02;0.53;;;9.70;99.90;;;;;;1908799;75;21039;-75
2021/05/14 02:03:47;;;;;;;0.53;0.50;;;9.60;99.90;;;;;;1908784;75;21093;-75
2021/05/14 02:06:14;;;;;;;0.30;0.30;;;9.70;99.90;;;;;;1908900;75;21132;-75
2021/05/14 02:08:40;;;;;;;0.40;0.40;;;9.70;99.90;;;;;;1908854;75;21027;-75
2021/05/14 02:11:10;;;;;;;1.40;0.50;;;9.70;99.90;;;;;;1908867;75;21046;-75
2021/05/14 02:13:34;;;;;;;3.10;0.50;;;9.70;99.90;;;;;;1908464;74;21488;-75
2021/05/14 02:16:00;;;;;;;0.68;0.68;;;9.60;99.90;;;;;;1908988;75;21016;-75
2021/05/14 02:18:26;;;;;;;0.85;0.60;;;9.70;99.90;;;;;;1909073;75;21112;-74
2021/05/14 02:20:52;;;;;;;3.20;0.80;;;9.70;99.90;;;;;;1908778;75;21034;-74
2021/05/14 02:23:18;;;;;;;2.17;0.70;;;9.60;99.90;;;;;;1908876;75;21050;-74
2021/05/14 02:25:45;;;;;;;0.85;0.45;;;9.60;99.90;;;;;;1908873;75;21040;-75
2021/05/14 02:28:11;;;;;;;1.70;0.50;;;9.50;99.90;;;;;;1908899;75;21081;-75
2021/05/14 02:30:37;;;;;;;0.60;0.50;;;9.50;99.90;;;;;;1908854;75;21077;-74
2021/05/14 02:33:03;;;;;;;9.13;0.78;;;9.40;99.90;;;;;;1908888;75;21011;-74
2021/05/14 02:35:29;;;;;;;1.02;0.62;;;9.40;99.90;;;;;;1908814;75;21073;-75
2021/05/14 02:37:55;;;;;;;4.72;0.70;;;9.30;99.90;;;;;;1908938;75;21457;-74
2021/05/14 02:40:21;;;;;;;0.75;0.60;;;9.20;99.90;;;;;;1908916;75;21568;-74
2021/05/14 02:42:47;;;;;;;0.82;0.78;;;9.10;99.90;;;;;;1908809;75;21169;-74
2021/05/14 02:45:14;;;;;;;0.68;0.65;;;9.20;99.90;;;;;;1908852;75;21015;-74
2021/05/14 02:47:41;;;;;;;1.50;0.70;;;9.20;99.90;;;;;;1908793;75;21054;-75
2021/05/14 02:50:07;;;;;;;0.53;0.53;;;9.30;99.90;;;;;;1908846;75;21557;-75
2021/05/14 02:52:33;;;;;;;0.40;0.40;;;9.20;99.90;;;;;;1909026;75;21446;-75
2021/05/14 02:55:00;;;;;;;1.15;0.70;;;9.10;99.90;;;;;;1908853;75;21471;-74
2021/05/14 02:57:26;;;;;;;4.40;0.90;;;9.20;99.90;;;;;;1908837;75;21039;-75
2021/05/14 02:59:52;;;;;;;0.75;0.55;;;9.20;99.90;;;;;;1908809;75;21039;-74
2021/05/14 03:02:18;;;;;;;1.02;0.68;;;9.30;99.90;;;;;;1908825;75;21054;-74
2021/05/14 03:04:44;;;;;;;0.55;0.55;;;9.30;99.90;;;;;;1908815;75;21116;-75
2021/05/14 03:07:10;;;;;;;2.67;0.60;;;9.30;99.90;;;;;;1908802;75;21046;-75
2021/05/14 03:09:36;;;;;;;1.20;0.60;;;9.30;99.90;;;;;;1908802;75;21034;-74
2021/05/14 03:12:02;;;;;;;1.07;0.70;;;9.40;99.90;;;;;;1909038;75;21038;-74
2021/05/14 03:14:29;;;;;;;1.50;0.70;;;9.30;99.90;;;;;;1908929;75;21043;-75
2021/05/14 03:16:55;;;;;;;0.80;0.62;;;9.40;99.90;;;;;;1908958;75;20980;-74
2021/05/14 03:19:21;;;;;;;1.05;0.60;;;9.30;99.90;;;;;;1908783;75;21124;-74
2021/05/14 03:21:47;;;;;;;3.10;0.65;;;9.40;99.90;;;;;;1908860;75;21034;-75
2021/05/14 03:24:13;;;;;;;1.27;0.82;;;9.40;99.90;;;;;;1908817;75;21034;-74
2021/05/14 03:26:39;;;;;;;0.40;0.40;;;9.40;99.90;;;;;;1908807;75;21051;-75
2021/05/14 03:29:05;;;;;;;0.40;0.40;;;9.50;99.90;;;;;;1908830;75;21411;-74
2021/05/14 03:31:31;;;;;;;1.77;0.70;;;9.50;99.90;;;;;;1908891;75;21391;-75
2021/05/14 03:33:58;;;;;;;1.57;0.75;;;9.50;99.90;;;;;;1908733;75;21541;-75
2021/05/14 03:36:24;;;;;;;1.05;0.68;;;9.40;99.90;;;;;;1908878;75;21430;-75
2021/05/14 03:38:50;;;;;;;0.78;0.70;;;9.40;99.90;;;;;;1908703;75;21039;-75
2021/05/14 03:41:20;;;;;;;1.35;0.70;;;9.30;99.90;;;;;;1908890;75;21046;-74
2021/05/14 03:43:44;;;;;;;0.95;0.80;;;9.30;99.90;;;;;;1908501;74;21039;-74
2021/05/14 03:46:11;;;;;;;1.52;0.70;;;9.40;99.90;;;;;;1908873;75;21035;-75
2021/05/14 03:48:37;;;;;;;1.65;0.68;;;9.40;99.90;;;;;;1908848;75;21100;-75
2021/05/14 03:51:03;;;;;;;1.37;0.53;;;9.30;99.90;;;;;;1908925;75;21022;-75
2021/05/14 03:53:29;;;;;;;1.02;0.50;;;9.40;99.90;;;;;;1909013;75;21038;-75
2021/05/14 03:55:55;;;;;;;1.07;0.72;;;9.30;99.90;;;;;;1899527;75;21116;-75
2021/05/14 03:58:21;;;;;;;0.90;0.80;;;9.30;99.90;;;;;;1908809;75;21059;-75
2021/05/14 04:00:47;;;;;;;2.83;0.90;;;9.20;99.90;;;;;;1908839;75;21015;-75
2021/05/14 04:03:15;;;;;;;1.47;0.80;;;9.30;99.90;;;;;;1908804;75;20991;-75
2021/05/14 04:05:41;;;;;;;2.15;0.55;;;9.20;99.90;;;;;;1908792;75;21419;-75
2021/05/14 04:08:09;;;;;;;3.77;1.05;;;9.20;99.90;;;;;;1908761;75;21514;-75
2021/05/14 04:15:53;;;;;;;0.50;0.50;;;9.10;99.90;;;;;;1917258;75;21054;-76
2021/05/14 04:18:20;;;;;;;1.10;0.50;;;9.00;99.90;;;;;;1921841;75;21054;-76
2021/05/14 04:20:46;;;;;;;0.78;0.62;;;8.90;99.90;;;;;;1922035;75;21112;-75
2021/05/14 04:23:12;;;;;;;1.00;0.70;;;8.90;99.90;;;;;;1921825;75;21034;-75
2021/05/14 04:25:39;;;;;;;0.30;0.30;;;8.80;99.90;;;;;;1921749;75;21152;-75
2021/05/14 04:28:06;;;;;;;6.35;0.90;;;8.70;99.90;;;;;;1921758;73;21042;-75
2021/05/14 04:30:32;;;;;;;1.25;0.95;;;8.60;99.90;;;;;;1921917;75;21018;-75
2021/05/14 04:33:01;;;;;;;1.02;0.90;;;8.50;99.90;;;;;;1922014;75;21046;-75
2021/05/14 04:35:28;;;;;;;2.92;0.88;;;8.60;99.90;;;;;;1921899;75;21083;-75
2021/05/14 04:37:54;;;;;;;1.75;0.68;;;8.40;99.90;;;;;;1921944;75;21019;-75
2021/05/14 04:40:20;;;;;;;2.27;1.10;;;8.40;99.90;;;;;;1921899;75;21109;-76
2021/05/14 04:42:46;;;;;;;3.70;0.80;;;8.40;99.90;;;;;;1921742;75;21137;-75
2021/05/14 04:45:12;;;;;;;1.47;0.72;;;8.50;99.90;;;;;;1921943;75;21051;-75
2021/05/14 04:47:38;;;;;;;0.70;0.70;;;8.50;99.90;;;;;;1921797;75;21062;-76
2021/05/14 04:50:05;;;;;;;1.10;0.93;;;8.50;99.90;;;;;;1921823;75;21112;-75
2021/05/14 04:52:31;;;;;;;1.75;0.88;;;8.50;99.90;;;;;;1921832;75;21115;-74
2021/05/14 04:54:57;;;;;;;1.15;0.95;;;8.50;99.90;;;;;;1921929;75;21344;-74
2021/05/14 04:57:24;;;;;;;5.08;2.62;;;8.60;99.90;;;;;;1921693;75;21045;-74
2021/05/14 04:59:50;;;;;;;3.77;2.12;;;8.60;99.90;;;;;;1921890;75;21054;-74
2021/05/14 05:02:16;;;;;;;9.90;3.15;;;8.60;99.90;;;;;;1921828;75;21059;-76
2021/05/14 05:04:42;;;;;;;8.65;3.12;;;8.50;99.90;;;;;;1921898;75;21394;-76
2021/05/14 05:07:08;;;;;;;10.95;3.60;;;8.50;99.90;;;;;;1921748;75;21537;-75
2021/05/14 05:09:34;;;;;;;4.37;2.25;;;8.60;99.90;;;;;;1921909;75;21437;-76
2021/05/14 05:12:00;;;;;;;6.45;2.70;;;8.60;99.90;;;;;;1922042;75;21463;-75
2021/05/14 05:14:27;;;;;;;5.53;2.90;;;8.60;99.90;;;;;;1921960;75;21050;-78
2021/05/14 05:16:53;;;;;;;3.47;1.87;;;8.60;99.90;;;;;;1876887;75;21051;-76
2021/05/14 05:19:20;;;;;;;4.05;1.70;;;8.70;99.90;;;;;;1914971;75;21046;-76
2021/05/14 05:21:46;;;;;;;1.27;1.00;;;8.60;99.90;;;;;;1908717;75;21035;-76
2021/05/14 05:24:12;;;;;;;1.22;1.00;;;8.70;99.90;;;;;;1908866;75;21007;-77
2021/05/14 05:26:38;;;;;;;1.55;1.07;;;8.70;99.90;;;;;;1908668;75;21151;-77
2021/05/14 05:29:04;;;;;;;0.70;0.70;;;8.80;99.90;;;;;;1908847;75;21039;-77
2021/05/14 05:31:30;;;;;;;1.20;1.10;;;8.80;99.90;;;;;;1908660;75;21035;-78
2021/05/14 05:33:56;;;;;;;1.85;1.07;;;8.80;99.90;;;;;;1908797;75;21039;-78
2021/05/14 05:36:22;;;;;;;0.90;0.90;;;8.90;99.90;;;;;;1908840;75;21039;-80
2021/05/14 05:38:50;;;;;;;2.55;0.98;;;9.00;99.90;;;;;;1908946;75;21036;-76
2021/05/14 05:41:16;;;;;;;1.62;0.95;;;9.20;99.90;;;;;;1908945;75;21043;-76
2021/05/14 05:43:43;;;;;;;0.80;0.80;;;9.40;99.90;;;;;;1908863;75;21046;-74
2021/05/14 05:46:09;;;;;;;3.77;1.20;;;9.50;99.90;;;;;;1909065;75;21105;-74
2021/05/14 05:48:35;;;;;;;3.00;1.02;;;9.80;99.90;;;;;;1908831;75;21086;-74
2021/05/14 05:51:01;;;;;;;2.90;0.95;;;10.00;99.90;;;;;;1908896;75;21108;-75
2021/05/14 05:53:27;;;;;;;1.25;0.90;;;10.30;99.90;;;;;;1908914;75;21066;-73
2021/05/14 05:55:54;;;;;;;1.20;0.70;;;10.50;99.90;;;;;;1894289;75;21042;-76
2021/05/14 05:58:20;;;;;;;6.95;1.67;;;10.80;99.90;;;;;;1908885;75;21042;-78
2021/05/14 06:00:47;;;;;;;1.15;0.70;;;10.90;99.90;;;;;;1908860;75;21046;-75
2021/05/14 06:03:14;;;;;;;3.35;0.95;;;11.10;99.90;;;;;;1908937;75;21470;-75
2021/05/14 06:05:40;;;;;;;1.75;0.70;;;11.00;99.90;;;;;;1908910;75;21121;-75
2021/05/14 06:08:06;;;;;;;1.27;0.75;;;11.30;99.90;;;;;;1908692;75;21092;-74
2021/05/14 06:10:32;;;;;;;1.47;0.68;;;11.50;99.90;;;;;;1908617;75;21054;-75
2021/05/14 06:12:58;;;;;;;1.67;0.88;;;11.90;99.90;;;;;;1908463;75;21089;-75
2021/05/14 06:15:24;;;;;;;2.37;0.60;;;12.50;99.90;;;;;;1908518;75;21047;-76
2021/05/14 06:17:50;;;;;;;0.80;0.68;;;12.90;99.90;;;;;;1908407;75;21042;-76
2021/05/14 06:20:19;;;;;;;1.25;0.72;;;12.60;99.90;;;;;;1908379;75;21162;-75
2021/05/14 06:22:44;;;;;;;0.60;0.60;;;12.30;99.90;;;;;;1908157;74;21046;-77
2021/05/14 06:25:10;;;;;;;1.87;0.62;;;12.10;99.90;;;;;;1908372;75;21121;-76
2021/05/14 06:27:36;;;;;;;0.60;0.60;;;12.20;99.90;;;;;;1908424;75;21042;-77
2021/05/14 06:30:03;;;;;;;3.02;0.70;;;12.60;99.90;;;;;;1908534;75;21048;-77
2021/05/14 06:32:29;;;;;;;1.50;0.80;;;12.50;99.90;;;;;;1908399;75;21121;-75
2021/05/14 06:34:56;;;;;;;2.70;0.82;;;13.20;99.90;;;;;;1908916;75;21128;-75
2021/05/14 06:37:22;;;;;;;1.42;0.60;;;14.00;99.90;;;;;;1908385;75;21023;-75
2021/05/14 06:39:48;;;;;;;3.37;0.75;;;15.40;99.90;;;;;;1908382;75;21090;-75
2021/05/14 06:42:14;;;;;;;4.53;0.72;;;15.70;99.90;;;;;;1908295;75;21046;-75
2021/05/14 06:44:40;;;;;;;0.82;0.53;;;16.40;99.90;;;;;;1908509;75;21112;-76
2021/05/14 06:47:07;;;;;;;0.50;0.50;;;16.70;99.90;;;;;;1908350;75;21023;-76
2021/05/14 06:49:33;;;;;;;1.10;0.65;;;17.10;99.90;;;;;;1908653;75;21094;-75
2021/05/14 06:51:59;;;;;;;0.82;0.33;;;16.30;99.90;;;;;;1908478;75;21055;-75
2021/05/14 06:54:25;;;;;;;1.77;0.60;;;16.70;99.90;;;;;;1908387;75;21117;-75
2021/05/14 06:56:51;;;;;;;0.90;0.53;;;16.80;99.90;;;;;;1909382;75;21054;-75
2021/05/14 06:59:17;;;;;;;0.65;0.55;;;17.20;99.90;;;;;;1908867;75;21109;-75
2021/05/14 07:01:43;;;;;;;1.60;0.42;;;17.30;99.90;;;;;;1909161;75;21021;-76
2021/05/14 07:04:09;;;;;;;0.45;0.40;;;16.90;99.90;;;;;;1909790;75;21070;-75
2021/05/14 07:06:36;;;;;;;2.33;0.60;;;16.40;99.90;;;;;;1909743;75;21042;-75
2021/05/14 07:09:02;;;;;;;0.93;0.50;;;16.50;99.90;;;;;;1910425;75;21116;-77
2021/05/14 07:11:28;;;;;;;1.17;0.37;;;16.40;99.90;;;;;;1911262;75;21108;-78
2021/05/14 07:13:54;;;;;;;1.65;0.60;;;16.50;99.90;;;;;;1910699;75;21018;-76
2021/05/14 07:16:20;;;;;;;0.40;0.40;;;17.50;99.90;;;;;;1909141;75;21047;-77
2021/05/14 07:18:46;;;;;;;0.30;0.30;;;18.00;99.90;;;;;;1908684;75;21058;-78
2021/05/14 07:21:12;;;;;;;0.70;0.53;;;18.10;99.90;;;;;;1908508;75;21125;-78
2021/05/14 07:23:39;;;;;;;4.60;0.53;;;18.40;99.90;;;;;;1908523;75;21175;-77
2021/05/14 07:26:05;;;;;;;0.85;0.37;;;19.40;99.90;;;;;;1908386;75;21035;-76
2021/05/14 07:28:31;;;;;;;0.40;0.40;;;19.50;99.90;;;;;;1908585;75;21050;-76
2021/05/14 07:30:57;;;;;;;0.47;0.33;;;19.00;99.90;;;;;;1908358;75;21108;-75
2021/05/14 07:33:23;;;;;;;1.17;0.50;;;18.60;99.90;;;;;;1908508;75;21011;-76
2021/05/14 07:35:49;;;;;;;0.30;0.20;;;17.90;99.90;;;;;;1908328;75;21043;-75
2021/05/14 07:38:15;;;;;;;0.85;0.65;;;17.20;99.90;;;;;;1908616;75;21104;-75
2021/05/14 07:40:41;;;;;;;1.00;0.40;;;17.00;99.90;;;;;;1908418;75;21039;-75
2021/05/14 07:43:08;;;;;;;0.98;0.33;;;17.50;99.90;;;;;;1908524;75;21008;-76
2021/05/14 07:45:34;;;;;;;0.80;0.40;;;17.20;99.90;;;;;;1908514;75;21015;-76
2021/05/14 07:48:00;;;;;;;1.85;0.30;;;17.40;99.90;;;;;;1908364;75;21112;-75
2021/05/14 07:50:27;;;;;;;1.12;0.40;;;17.30;99.90;;;;;;1908553;75;21051;-75
2021/05/14 07:52:53;;;;;;;0.95;0.30;;;16.70;99.90;;;;;;1908486;75;21058;-76
2021/05/14 07:55:19;;;;;;;0.30;0.30;;;17.20;99.90;;;;;;1908498;75;21086;-78
2021/05/14 07:57:45;;;;;;;3.40;0.40;;;17.10;99.90;;;;;;1908651;75;21039;-77
2021/05/14 08:00:11;;;;;;;4.22;0.28;;;17.40;99.90;;;;;;1908466;75;21104;-77
2021/05/14 08:02:38;;;;;;;4.80;0.47;;;18.60;99.90;;;;;;1908557;75;21031;-76
2021/05/14 08:05:04;;;;;;;6.03;0.45;;;18.30;99.90;;;;;;1908700;75;21042;-76
2021/05/14 08:07:30;;;;;;;1.35;0.50;;;17.10;99.90;;;;;;1908702;75;21037;-76
2021/05/14 08:09:57;;;;;;;0.42;0.42;;;16.30;99.90;;;;;;1908594;75;21183;-77
2021/05/14 08:12:23;;;;;;;0.85;0.42;;;15.90;99.90;;;;;;1908633;75;21007;-76
2021/05/14 08:14:49;;;;;;;2.40;0.72;;;15.90;99.90;;;;;;1908594;75;21085;-76
2021/05/14 08:17:15;;;;;;;0.45;0.37;;;16.00;99.90;;;;;;1908457;75;21042;-76
2021/05/14 08:19:41;;;;;;;0.42;0.30;;;16.50;99.90;;;;;;1908524;75;21043;-76
2021/05/14 08:22:08;;;;;;;0.47;0.37;;;17.30;99.90;;;;;;1908591;75;20987;-76
2021/05/14 08:24:34;;;;;;;0.30;0.30;;;17.30;99.90;;;;;;1908497;75;21505;-76
2021/05/14 08:27:00;;;;;;;0.65;0.30;;;17.30;99.90;;;;;;1908470;75;21128;-76
2021/05/14 08:29:26;;;;;;;1.55;0.50;;;17.30;99.90;;;;;;1908535;75;21455;-75
2021/05/14 08:31:52;;;;;;;3.00;0.45;;;16.90;99.90;;;;;;1908575;75;21399;-76
2021/05/14 08:34:18;;;;;;;4.97;0.60;;;17.20;99.90;;;;;;1908649;75;21466;-76
2021/05/14 08:36:44;;;;;;;1.60;0.35;;;17.60;99.90;;;;;;1908579;75;21007;-76
2021/05/14 08:39:10;;;;;;;1.20;0.50;;;18.10;99.90;;;;;;1908569;75;21556;-76
2021/05/14 08:41:37;;;;;;;0.20;0.20;;;17.50;99.90;;;;;;1908367;75;21314;-76
2021/05/14 08:44:04;;;;;;;0.42;0.30;;;17.40;99.90;;;;;;1908645;75;21025;-76
2021/05/14 08:46:30;;;;;;;1.35;0.40;;;16.70;99.90;;;;;;1883769;75;21117;-75
2021/05/14 08:48:56;;;;;;;0.25;0.25;;;16.70;99.90;;;;;;1909062;75;21058;-74
2021/05/14 08:51:30;;;;;;;1.80;0.60;;;17.50;99.90;;;;;;1908712;75;21116;-73
2021/05/14 08:54:01;;;;;;;1.02;0.42;;;17.40;99.90;;;;;;1908802;75;21116;-75
2021/05/14 08:56:24;;;;;;;2.92;0.33;;;17.80;99.90;;;;;;1908678;74;21467;-76
2021/05/14 08:58:50;;;;;;;1.50;0.42;;;16.90;99.90;;;;;;1909471;75;21490;-76
2021/05/14 09:01:16;;;;;;;0.35;0.30;;;16.50;99.90;;;;;;1909031;75;21500;-76
2021/05/14 09:03:42;;;;;;;0.53;0.15;;;16.40;99.90;;;;;;1908980;75;21457;-76
2021/05/14 09:06:08;;;;;;;0.68;0.50;;;16.30;99.90;;;;;;1909147;75;21427;-77
2021/05/14 09:08:34;;;;;;;1.00;0.40;;;16.80;99.90;;;;;;1909115;75;21531;-77
2021/05/14 09:11:00;;;;;;;1.00;0.30;;;16.80;99.90;;;;;;1909070;75;21007;-76
2021/05/14 09:13:26;;;;;;;0.20;0.20;;;17.10;99.90;;;;;;1909297;75;21108;-75
2021/05/14 09:15:53;;;;;;;0.40;0.40;;;17.10;99.90;;;;;;1909056;75;21039;-76
2021/05/14 09:18:19;;;;;;;1.15;0.20;;;16.70;99.90;;;;;;1908717;75;21241;-77
2021/05/14 09:20:46;;;;;;;0.25;0.25;;;17.00;99.90;;;;;;1908822;75;21159;-77
2021/05/14 09:23:12;;;;;;;0.30;0.20;;;17.30;99.90;;;;;;1908570;75;21058;-77
2021/05/14 09:25:38;;;;;;;0.93;0.30;;;17.90;99.90;;;;;;1908546;75;21043;-77
2021/05/14 09:28:04;;;;;;;0.30;0.20;;;17.80;99.90;;;;;;1908429;75;21123;-77
2021/05/14 09:30:32;;;;;;;0.28;0.20;;;17.30;99.90;;;;;;1908645;75;21446;-77
2021/05/14 09:32:58;;;;;;;0.98;0.20;;;17.10;99.90;;;;;;1908558;75;21078;-77
2021/05/14 09:35:24;;;;;;;0.65;0.33;;;16.70;99.90;;;;;;1908871;75;21486;-78
2021/05/14 09:37:50;;;;;;;8.03;0.40;;;16.60;99.90;;;;;;1908926;75;21506;-77
2021/05/14 09:40:16;;;;;;;0.90;0.23;;;16.60;99.90;;;;;;1908828;75;21442;-77
2021/05/14 09:42:43;;;;;;;0.90;0.30;;;16.60;99.90;;;;;;1908843;75;21039;-75
2021/05/14 09:45:09;;;;;;;1.12;0.30;;;16.80;99.90;;;;;;1908895;75;21050;-76
2021/05/14 09:47:35;;;;;;;1.67;0.20;;;17.80;99.90;;;;;;1908912;75;21025;-77
2021/05/14 09:50:01;;;;;;;1.10;0.30;;;18.40;99.90;;;;;;1909091;75;21113;-78
2021/05/14 09:52:27;;;;;;;1.12;0.30;;;19.10;99.90;;;;;;1908943;75;21193;-81
2021/05/14 09:54:53;;;;;;;0.42;0.10;;;19.90;99.90;;;;;;1908932;75;21120;-80
2021/05/14 09:59:53;;;;;;;0.88;0.15;;;20.30;99.90;;;;;;1909622;75;21125;-78
2021/05/14 10:02:19;;;;;;;0.20;0.20;;;19.50;99.90;;;;;;1912099;75;21632;-77
2021/05/14 10:04:46;;;;;;;1.20;0.30;;;18.10;99.90;;;;;;1912054;75;20991;-78
2021/05/14 10:07:12;;;;;;;4.47;0.37;;;17.30;99.90;;;;;;1909923;75;21089;-78
2021/05/14 10:09:38;;;;;;;0.93;0.23;;;17.30;99.90;;;;;;1906924;75;21111;-76
2021/05/14 10:12:04;;;;;;;0.60;0.40;;;17.30;99.90;;;;;;1911719;75;21118;-69
2021/05/14 10:14:33;;;;;;;0.70;0.30;;;17.10;99.90;;;;;;1911228;75;21054;-72
2021/05/14 10:17:00;;;;;;;1.85;0.30;;;17.10;99.90;;;;;;1911128;75;21070;-78
2021/05/14 10:19:26;;;;;;;0.20;0.20;;;16.60;99.90;;;;;;1924724;74;21030;-79
2021/05/14 10:21:52;;;;;;;0.72;0.30;;;16.50;99.90;;;;;;1923146;75;21111;-79
2021/05/14 10:24:18;;;;;;;0.75;0.40;;;16.50;99.90;;;;;;1922602;75;21050;-76
2021/05/14 10:26:45;;;;;;;3.35;0.35;;;16.80;99.90;;;;;;1922227;75;21115;-76
2021/05/14 10:29:11;;;;;;;0.10;0.10;;;16.80;99.90;;;;;;1921492;75;21022;-76
2021/05/14 10:31:37;;;;;;;13.20;0.40;;;16.40;99.90;;;;;;1921481;75;21120;-76
2021/05/14 10:34:04;;;;;;;0.45;0.30;;;16.10;99.90;;;;;;1921302;75;21132;-76
2021/05/14 10:36:33;;;;;;;0.40;0.35;;;16.10;99.90;;;;;;1921451;75;21140;-76
2021/05/14 10:38:59;;;;;;;2.50;0.37;;;15.90;99.90;;;;;;1921617;75;21077;-77
2021/05/14 10:41:25;;;;;;;1.57;0.50;;;15.80;99.90;;;;;;1921363;75;21103;-79
2021/05/14 10:43:52;;;;;;;0.98;0.30;;;15.70;99.90;;;;;;1921501;75;21201;-79
2021/05/14 10:46:18;;;;;;;0.72;0.40;;;15.70;99.90;;;;;;1921382;75;21015;-79
2021/05/14 10:48:44;;;;;;;0.78;0.42;;;15.80;99.90;;;;;;1921430;75;21038;-79
2021/05/14 10:51:10;;;;;;;0.90;0.40;;;15.60;99.90;;;;;;1921541;75;21154;-79
2021/05/14 10:53:37;;;;;;;0.20;0.20;;;15.40;99.90;;;;;;1921545;75;21558;-79
2021/05/14 10:56:03;;;;;;;5.75;0.60;;;14.90;99.90;;;;;;1921471;75;21534;-78
2021/05/14 10:58:30;;;;;;;0.95;0.42;;;14.40;99.90;;;;;;1921382;75;21457;-76
2021/05/14 11:00:56;;;;;;;1.95;0.30;;;14.10;99.90;;;;;;1921372;75;21181;-76
2021/05/14 11:03:23;;;;;;;1.45;0.72;;;13.80;99.90;;;;;;1921471;75;21046;-77
2021/05/14 11:05:49;;;;;;;1.10;0.50;;;13.90;99.90;;;;;;1921325;75;21054;-77
2021/05/14 11:08:15;;;;;;;0.93;0.50;;;14.20;99.90;;;;;;1921347;75;21435;-77
2021/05/14 11:10:41;;;;;;;0.50;0.50;;;14.20;99.90;;;;;;1921337;75;21119;-76
2021/05/14 11:13:07;;;;;;;0.68;0.40;;;14.30;99.90;;;;;;1921316;75;21042;-76
2021/05/14 11:15:33;;;;;;;1.00;0.33;;;14.30;99.90;;;;;;1921475;75;21030;-75
2021/05/14 11:18:00;;;;;;;1.87;0.50;;;14.50;99.90;;;;;;1921451;75;21042;-76
2021/05/14 11:20:26;;;;;;;3.40;0.50;;;14.60;99.90;;;;;;1921521;75;21038;-76
2021/05/14 11:22:52;;;;;;;2.52;0.70;;;14.70;99.90;;;;;;1921461;75;21030;-75
2021/05/14 11:25:21;;;;;;;0.70;0.50;;;15.20;99.90;;;;;;1921403;75;21115;-74
2021/05/14 11:27:50;;;;;;;2.05;0.57;;;15.80;99.90;;;;;;1921154;74;21057;-74
2021/05/14 11:30:14;;;;;;;0.30;0.20;;;16.30;99.90;;;;;;1920837;74;21015;-75
2021/05/14 11:32:40;;;;;;;0.95;0.30;;;16.60;99.90;;;;;;1921471;75;21054;-76
2021/05/14 11:35:06;;;;;;;0.40;0.30;;;17.30;99.90;;;;;;1921372;75;21023;-75
2021/05/14 11:37:33;;;;;;;0.28;0.28;;;17.50;99.90;;;;;;1921427;75;21042;-74
2021/05/14 11:39:59;;;;;;;3.85;0.50;;;17.60;99.90;;;;;;1921514;75;21050;-76
2021/05/14 11:42:25;;;;;;;0.10;0.10;;;17.60;99.90;;;;;;1921490;75;21011;-77
2021/05/14 11:44:53;;;;;;;0.20;0.20;;;17.80;99.90;;;;;;1921499;75;21100;-77
2021/05/14 11:47:19;;;;;;;0.30;0.20;;;17.50;99.90;;;;;;1921665;73;21165;-77
2021/05/14 11:49:45;;;;;;;3.12;0.50;;;17.90;99.90;;;;;;1921820;75;21410;-77
2021/05/14 11:52:12;;;;;;;0.75;0.30;;;18.50;99.90;;;;;;1921740;74;21050;-77
2021/05/14 11:54:38;;;;;;;0.53;0.42;;;18.50;99.90;;;;;;1921671;75;21038;-76
2021/05/14 11:57:04;;;;;;;0.25;0.20;;;18.70;99.90;;;;;;1921640;75;21038;-76
2021/05/14 11:59:30;;;;;;;1.47;0.20;;;19.20;99.90;;;;;;1921650;75;21097;-75
2021/05/14 12:01:56;;;;;;;4.12;0.28;;;19.20;99.90;;;;;;1921582;75;21014;-76
2021/05/14 12:04:22;;;;;;;0.10;0.10;;;18.90;99.90;;;;;;1921576;75;21034;-77
2021/05/14 12:06:49;;;;;;;0.08;0.08;;;18.60;99.90;;;;;;1921932;75;21042;-77
2021/05/14 12:09:15;;;;;;;2.47;0.30;;;18.00;99.90;;;;;;1921765;75;21050;-77
2021/05/14 12:11:41;;;;;;;0.03;0.03;;;18.10;99.90;;;;;;1921865;75;21051;-77
2021/05/14 12:14:07;;;;;;;0.28;0.13;;;18.60;99.90;;;;;;1921753;75;21102;-76
2021/05/14 12:16:33;;;;;;;1.30;0.30;;;18.90;99.90;;;;;;1921720;75;21045;-75
2021/05/14 12:19:02;;;;;;;1.10;0.13;;;18.60;99.90;;;;;;1921820;75;21065;-78
2021/05/14 12:21:27;;;;;;;0.25;0.25;;;19.40;99.90;;;;;;1921664;73;21462;-76
2021/05/14 12:23:53;;;;;;;0.75;0.20;;;20.10;99.90;;;;;;1921842;75;21039;-76
2021/05/14 12:26:20;;;;;;;0.20;0.20;;;19.30;99.90;;;;;;1921655;75;21058;-76
2021/05/14 12:28:46;;;;;;;1.07;0.20;;;20.00;99.90;;;;;;1921990;75;21054;-77
2021/05/14 12:31:12;;;;;;;1.05;0.33;;;20.40;99.90;;;;;;1921761;75;21058;-77
2021/05/14 12:33:38;;;;;;;0.10;0.10;;;21.00;99.90;;;;;;1921871;75;21046;-74
2021/05/14 12:36:04;;;;;;;0.20;0.20;;;22.00;99.90;;;;;;1921719;75;21011;-75
2021/05/14 12:38:31;;;;;;;2.37;0.30;;;22.20;99.90;;;;;;1921943;75;21453;-75
2021/05/14 12:40:57;;;;;;;1.05;0.25;;;22.40;99.90;;;;;;1921746;75;21429;-75
2021/05/14 12:43:23;;;;;;;1.52;0.20;;;23.20;99.90;;;;;;1921902;75;21519;-75
2021/05/14 12:45:50;;;;;;;0.25;0.10;;;23.50;96.00;;;;;;1921758;75;21431;-77
2021/05/14 12:48:16;;;;;;;0.47;0.30;;;23.20;94.40;;;;;;1921846;75;21022;-74
2021/05/14 12:50:44;;;;;;;0.55;0.20;;;23.70;93.60;;;;;;1921899;75;21049;-75
2021/05/14 12:53:10;;;;;;;0.40;0.10;;;24.20;92.10;;;;;;1921925;75;21089;-78